sensor_id;sensor_type;location;lat;lon;timestamp;P1;durP1;ratioP1;P2;durP2;ratioP2
48789;SDS011;41718;51.980;5.734;2022-11-15T00:00:11;52.95;;;23.65;;
48789;SDS011;41718;51.980;5.734;2022-11-15T00:05:13;65.40;;;28.42;;
48789;SDS011;41718;51.980;5.734;2022-11-15T00:10:15;50.85;;;23.13;;
48789;SDS011;41718;51.980;5.734;2022-11-15T00:15:16;64.55;;;28.90;;
48789;SDS011;41718;51.980;5.734;2022-11-15T00:20:18;64.57;;;31.52;;
48789;SDS011;41718;51.980;5.734;2022-11-15T00:25:19;58.97;;;28.95;;
48789;SDS011;41718;51.980;5.734;2022-11-15T00:30:23;58.72;;;26.38;;
48789;SDS011;41718;51.980;5.734;2022-11-15T00:35:25;58.55;;;26.02;;
48789;SDS011;41718;51.980;5.734;2022-11-15T00:40:28;60.72;;;26.98;;
48789;SDS011;41718;51.980;5.734;2022-11-15T00:45:33;54.90;;;26.33;;
48789;SDS011;41718;51.980;5.734;2022-11-15T00:50:34;58.67;;;27.42;;
48789;SDS011;41718;51.980;5.734;2022-11-15T00:55:37;57.88;;;26.05;;
48789;SDS011;41718;51.980;5.734;2022-11-15T01:00:38;59.15;;;27.13;;
48789;SDS011;41718;51.980;5.734;2022-11-15T01:05:40;70.05;;;29.50;;
48789;SDS011;41718;51.980;5.734;2022-11-15T01:10:41;64.97;;;30.30;;
48789;SDS011;41718;51.980;5.734;2022-11-15T01:15:43;66.97;;;32.30;;
48789;SDS011;41718;51.980;5.734;2022-11-15T01:20:44;63.28;;;32.75;;
48789;SDS011;41718;51.980;5.734;2022-11-15T01:25:46;64.82;;;31.67;;
48789;SDS011;41718;51.980;5.734;2022-11-15T01:30:47;54.85;;;26.77;;
48789;SDS011;41718;51.980;5.734;2022-11-15T01:35:49;58.58;;;27.30;;
48789;SDS011;41718;51.980;5.734;2022-11-15T01:40:50;54.47;;;28.88;;
48789;SDS011;41718;51.980;5.734;2022-11-15T01:46:06;58.08;;;29.20;;
48789;SDS011;41718;51.980;5.734;2022-11-15T01:51:17;59.50;;;29.25;;
48789;SDS011;41718;51.980;5.734;2022-11-15T01:56:22;58.17;;;30.45;;
48789;SDS011;41718;51.980;5.734;2022-11-15T02:01:26;61.10;;;29.67;;
48789;SDS011;41718;51.980;5.734;2022-11-15T02:06:29;52.50;;;27.95;;
48789;SDS011;41718;51.980;5.734;2022-11-15T02:11:31;51.58;;;27.60;;
48789;SDS011;41718;51.980;5.734;2022-11-15T02:16:48;58.53;;;28.50;;
48789;SDS011;41718;51.980;5.734;2022-11-15T02:37:56;56.85;;;30.65;;
48789;SDS011;41718;51.980;5.734;2022-11-15T02:43:03;63.38;;;33.95;;
48789;SDS011;41718;51.980;5.734;2022-11-15T02:48:28;60.25;;;31.75;;
48789;SDS011;41718;51.980;5.734;2022-11-15T02:53:32;62.22;;;31.67;;
48789;SDS011;41718;51.980;5.734;2022-11-15T03:09:32;72.07;;;37.58;;
48789;SDS011;41718;51.980;5.734;2022-11-15T03:14:59;73.70;;;36.35;;
48789;SDS011;41718;51.980;5.734;2022-11-15T03:20:03;71.70;;;35.10;;
48789;SDS011;41718;51.980;5.734;2022-11-15T03:25:07;76.40;;;37.67;;
48789;SDS011;41718;51.980;5.734;2022-11-15T03:30:12;79.28;;;37.78;;
48789;SDS011;41718;51.980;5.734;2022-11-15T03:35:17;70.72;;;36.75;;
48789;SDS011;41718;51.980;5.734;2022-11-15T03:45:31;73.72;;;36.20;;
48789;SDS011;41718;51.980;5.734;2022-11-15T03:50:41;82.07;;;36.05;;
48789;SDS011;41718;51.980;5.734;2022-11-15T03:55:44;74.80;;;36.60;;
48789;SDS011;41718;51.980;5.734;2022-11-15T04:00:46;76.60;;;37.55;;
48789;SDS011;41718;51.980;5.734;2022-11-15T04:05:47;84.55;;;40.78;;
48789;SDS011;41718;51.980;5.734;2022-11-15T04:10:49;83.63;;;40.75;;
48789;SDS011;41718;51.980;5.734;2022-11-15T04:15:51;83.10;;;38.33;;
48789;SDS011;41718;51.980;5.734;2022-11-15T04:20:52;92.65;;;37.97;;
48789;SDS011;41718;51.980;5.734;2022-11-15T04:26:16;78.57;;;37.90;;
48789;SDS011;41718;51.980;5.734;2022-11-15T04:31:19;88.95;;;39.58;;
48789;SDS011;41718;51.980;5.734;2022-11-15T04:36:20;85.28;;;39.35;;
48789;SDS011;41718;51.980;5.734;2022-11-15T04:41:41;81.85;;;39.35;;
48789;SDS011;41718;51.980;5.734;2022-11-15T04:46:42;91.72;;;39.55;;
48789;SDS011;41718;51.980;5.734;2022-11-15T04:51:44;93.20;;;39.92;;
48789;SDS011;41718;51.980;5.734;2022-11-15T04:56:46;88.65;;;41.13;;
48789;SDS011;41718;51.980;5.734;2022-11-15T05:01:47;87.78;;;39.05;;
48789;SDS011;41718;51.980;5.734;2022-11-15T05:06:49;93.10;;;40.90;;
48789;SDS011;41718;51.980;5.734;2022-11-15T05:11:52;87.90;;;40.42;;
48789;SDS011;41718;51.980;5.734;2022-11-15T05:16:54;87.28;;;41.70;;
48789;SDS011;41718;51.980;5.734;2022-11-15T05:21:55;92.05;;;39.45;;
48789;SDS011;41718;51.980;5.734;2022-11-15T05:26:56;85.70;;;41.25;;
48789;SDS011;41718;51.980;5.734;2022-11-15T05:31:58;97.15;;;43.22;;
48789;SDS011;41718;51.980;5.734;2022-11-15T05:37:00;89.20;;;41.83;;
48789;SDS011;41718;51.980;5.734;2022-11-15T05:42:04;93.05;;;41.75;;
48789;SDS011;41718;51.980;5.734;2022-11-15T05:47:10;98.78;;;43.50;;
48789;SDS011;41718;51.980;5.734;2022-11-15T05:52:16;105.78;;;40.33;;
48789;SDS011;41718;51.980;5.734;2022-11-15T05:57:21;107.27;;;43.23;;
48789;SDS011;41718;51.980;5.734;2022-11-15T06:02:22;106.30;;;44.25;;
48789;SDS011;41718;51.980;5.734;2022-11-15T06:07:24;102.82;;;42.63;;
48789;SDS011;41718;51.980;5.734;2022-11-15T06:12:26;97.50;;;41.13;;
48789;SDS011;41718;51.980;5.734;2022-11-15T06:17:27;103.18;;;41.92;;
48789;SDS011;41718;51.980;5.734;2022-11-15T06:22:30;97.38;;;41.80;;
48789;SDS011;41718;51.980;5.734;2022-11-15T06:27:31;95.93;;;42.70;;
48789;SDS011;41718;51.980;5.734;2022-11-15T06:32:32;95.05;;;41.67;;
48789;SDS011;41718;51.980;5.734;2022-11-15T06:37:34;108.03;;;43.67;;
48789;SDS011;41718;51.980;5.734;2022-11-15T06:42:35;93.70;;;42.22;;
48789;SDS011;41718;51.980;5.734;2022-11-15T06:47:44;97.82;;;41.70;;
48789;SDS011;41718;51.980;5.734;2022-11-15T06:52:47;101.57;;;41.92;;
48789;SDS011;41718;51.980;5.734;2022-11-15T06:57:49;99.88;;;42.47;;
48789;SDS011;41718;51.980;5.734;2022-11-15T07:02:52;95.28;;;41.58;;
48789;SDS011;41718;51.980;5.734;2022-11-15T07:07:54;93.70;;;42.78;;
48789;SDS011;41718;51.980;5.734;2022-11-15T07:12:56;88.65;;;39.05;;
48789;SDS011;41718;51.980;5.734;2022-11-15T07:18:00;95.78;;;36.70;;
48789;SDS011;41718;51.980;5.734;2022-11-15T07:23:05;86.40;;;35.83;;
48789;SDS011;41718;51.980;5.734;2022-11-15T07:28:06;77.82;;;34.13;;
48789;SDS011;41718;51.980;5.734;2022-11-15T07:33:08;83.65;;;36.88;;
48789;SDS011;41718;51.980;5.734;2022-11-15T07:38:10;78.93;;;36.65;;
48789;SDS011;41718;51.980;5.734;2022-11-15T07:43:11;77.05;;;33.60;;
48789;SDS011;41718;51.980;5.734;2022-11-15T07:48:13;80.53;;;35.15;;
48789;SDS011;41718;51.980;5.734;2022-11-15T07:53:14;88.10;;;35.17;;
48789;SDS011;41718;51.980;5.734;2022-11-15T07:58:15;87.82;;;35.13;;
48789;SDS011;41718;51.980;5.734;2022-11-15T08:03:17;78.63;;;34.15;;
48789;SDS011;41718;51.980;5.734;2022-11-15T08:08:18;77.13;;;33.58;;
48789;SDS011;41718;51.980;5.734;2022-11-15T08:13:20;80.25;;;35.67;;
48789;SDS011;41718;51.980;5.734;2022-11-15T08:18:22;76.13;;;33.22;;
48789;SDS011;41718;51.980;5.734;2022-11-15T08:23:24;68.45;;;32.70;;
48789;SDS011;41718;51.980;5.734;2022-11-15T08:28:25;69.80;;;31.67;;
48789;SDS011;41718;51.980;5.734;2022-11-15T08:33:27;66.40;;;31.23;;
48789;SDS011;41718;51.980;5.734;2022-11-15T08:38:29;77.38;;;33.38;;
48789;SDS011;41718;51.980;5.734;2022-11-15T08:43:32;70.45;;;32.17;;
48789;SDS011;41718;51.980;5.734;2022-11-15T08:48:34;65.20;;;30.80;;
48789;SDS011;41718;51.980;5.734;2022-11-15T08:53:36;69.35;;;29.35;;
48789;SDS011;41718;51.980;5.734;2022-11-15T08:58:37;58.88;;;29.23;;
48789;SDS011;41718;51.980;5.734;2022-11-15T09:03:40;61.72;;;29.52;;
48789;SDS011;41718;51.980;5.734;2022-11-15T09:08:41;55.63;;;29.83;;
48789;SDS011;41718;51.980;5.734;2022-11-15T09:13:48;63.05;;;28.15;;
48789;SDS011;41718;51.980;5.734;2022-11-15T09:18:50;45.90;;;25.50;;
48789;SDS011;41718;51.980;5.734;2022-11-15T09:23:51;46.38;;;22.80;;
48789;SDS011;41718;51.980;5.734;2022-11-15T09:28:53;39.33;;;20.88;;
48789;SDS011;41718;51.980;5.734;2022-11-15T09:33:55;47.58;;;21.23;;
48789;SDS011;41718;51.980;5.734;2022-11-15T09:38:59;34.28;;;17.90;;
48789;SDS011;41718;51.980;5.734;2022-11-15T09:49:08;33.47;;;18.25;;
48789;SDS011;41718;51.980;5.734;2022-11-15T10:05:37;22.35;;;14.05;;
48789;SDS011;41718;51.980;5.734;2022-11-15T10:10:43;19.83;;;11.93;;
48789;SDS011;41718;51.980;5.734;2022-11-15T10:15:48;14.82;;;9.35;;
48789;SDS011;41718;51.980;5.734;2022-11-15T10:21:06;16.27;;;10.10;;
48789;SDS011;41718;51.980;5.734;2022-11-15T10:26:21;12.38;;;7.65;;
48789;SDS011;41718;51.980;5.734;2022-11-15T10:31:26;13.48;;;7.70;;
48789;SDS011;41718;51.980;5.734;2022-11-15T10:36:29;9.10;;;6.78;;
48789;SDS011;41718;51.980;5.734;2022-11-15T10:41:32;7.03;;;5.40;;
48789;SDS011;41718;51.980;5.734;2022-11-15T10:46:38;8.45;;;4.63;;
48789;SDS011;41718;51.980;5.734;2022-11-15T10:57:06;6.70;;;3.95;;
48789;SDS011;41718;51.980;5.734;2022-11-15T11:02:38;6.22;;;3.88;;
48789;SDS011;41718;51.980;5.734;2022-11-15T11:07:43;9.50;;;3.90;;
48789;SDS011;41718;51.980;5.734;2022-11-15T11:13:12;3.53;;;3.00;;
48789;SDS011;41718;51.980;5.734;2022-11-15T11:18:19;5.75;;;3.10;;
48789;SDS011;41718;51.980;5.734;2022-11-15T11:28:53;6.22;;;2.80;;
48789;SDS011;41718;51.980;5.734;2022-11-15T11:50:18;4.78;;;2.38;;
48789;SDS011;41718;51.980;5.734;2022-11-15T11:55:22;6.18;;;2.17;;
48789;SDS011;41718;51.980;5.734;2022-11-15T12:00:49;2.40;;;1.90;;
48789;SDS011;41718;51.980;5.734;2022-11-15T12:05:59;2.97;;;1.45;;
48789;SDS011;41718;51.980;5.734;2022-11-15T12:11:07;8.40;;;1.50;;
48789;SDS011;41718;51.980;5.734;2022-11-15T12:16:16;2.13;;;1.70;;
48789;SDS011;41718;51.980;5.734;2022-11-15T12:26:48;4.68;;;1.92;;
48789;SDS011;41718;51.980;5.734;2022-11-15T12:31:54;11.95;;;3.28;;
48789;SDS011;41718;51.980;5.734;2022-11-15T12:36:59;7.47;;;2.50;;
48789;SDS011;41718;51.980;5.734;2022-11-15T12:52:09;3.97;;;1.42;;
48789;SDS011;41718;51.980;5.734;2022-11-15T13:02:19;2.72;;;1.45;;
48789;SDS011;41718;51.980;5.734;2022-11-15T13:22:53;2.97;;;1.55;;
48789;SDS011;41718;51.980;5.734;2022-11-15T13:33:19;3.95;;;1.58;;
48789;SDS011;41718;51.980;5.734;2022-11-15T13:43:35;3.97;;;1.33;;
48789;SDS011;41718;51.980;5.734;2022-11-15T13:48:37;3.28;;;1.25;;
48789;SDS011;41718;51.980;5.734;2022-11-15T13:53:40;5.55;;;1.10;;
48789;SDS011;41718;51.980;5.734;2022-11-15T13:58:47;3.38;;;1.17;;
48789;SDS011;41718;51.980;5.734;2022-11-15T14:03:58;1.60;;;1.08;;
48789;SDS011;41718;51.980;5.734;2022-11-15T14:14:13;2.58;;;1.50;;
48789;SDS011;41718;51.980;5.734;2022-11-15T14:24:21;14.82;;;9.52;;
48789;SDS011;41718;51.980;5.734;2022-11-15T14:29:26;8.60;;;4.10;;
48789;SDS011;41718;51.980;5.734;2022-11-15T14:34:31;4.97;;;1.70;;
48789;SDS011;41718;51.980;5.734;2022-11-15T14:39:33;10.93;;;4.40;;
48789;SDS011;41718;51.980;5.734;2022-11-15T14:44:34;6.10;;;2.67;;
48789;SDS011;41718;51.980;5.734;2022-11-15T14:49:36;10.45;;;2.40;;
48789;SDS011;41718;51.980;5.734;2022-11-15T14:54:37;2.85;;;1.73;;
48789;SDS011;41718;51.980;5.734;2022-11-15T14:59:39;8.13;;;2.63;;
48789;SDS011;41718;51.980;5.734;2022-11-15T15:04:40;8.70;;;1.95;;
48789;SDS011;41718;51.980;5.734;2022-11-15T15:09:42;3.40;;;2.30;;
48789;SDS011;41718;51.980;5.734;2022-11-15T15:14:44;2.92;;;1.23;;
48789;SDS011;41718;51.980;5.734;2022-11-15T15:19:47;7.72;;;1.80;;
48789;SDS011;41718;51.980;5.734;2022-11-15T15:24:49;6.18;;;2.70;;
48789;SDS011;41718;51.980;5.734;2022-11-15T15:29:50;2.33;;;1.65;;
48789;SDS011;41718;51.980;5.734;2022-11-15T15:34:51;7.65;;;3.05;;
48789;SDS011;41718;51.980;5.734;2022-11-15T15:39:55;3.60;;;1.80;;
48789;SDS011;41718;51.980;5.734;2022-11-15T15:44:57;5.72;;;2.45;;
48789;SDS011;41718;51.980;5.734;2022-11-15T15:49:59;3.05;;;1.88;;
48789;SDS011;41718;51.980;5.734;2022-11-15T15:55:00;2.45;;;1.50;;
48789;SDS011;41718;51.980;5.734;2022-11-15T16:00:03;4.18;;;2.10;;
48789;SDS011;41718;51.980;5.734;2022-11-15T16:05:05;5.18;;;2.28;;
48789;SDS011;41718;51.980;5.734;2022-11-15T16:10:29;4.38;;;2.05;;
48789;SDS011;41718;51.980;5.734;2022-11-15T16:15:31;4.20;;;1.95;;
48789;SDS011;41718;51.980;5.734;2022-11-15T16:20:43;7.95;;;3.13;;
48789;SDS011;41718;51.980;5.734;2022-11-15T16:25:50;7.15;;;2.00;;
48789;SDS011;41718;51.980;5.734;2022-11-15T16:36:01;11.15;;;5.95;;
48789;SDS011;41718;51.980;5.734;2022-11-15T16:41:04;19.83;;;11.98;;
48789;SDS011;41718;51.980;5.734;2022-11-15T16:46:12;11.25;;;5.90;;
48789;SDS011;41718;51.980;5.734;2022-11-15T16:51:16;4.07;;;3.25;;
48789;SDS011;41718;51.980;5.734;2022-11-15T16:56:19;6.57;;;3.10;;
48789;SDS011;41718;51.980;5.734;2022-11-15T17:01:25;5.68;;;4.40;;
48789;SDS011;41718;51.980;5.734;2022-11-15T17:06:29;5.22;;;2.63;;
48789;SDS011;41718;51.980;5.734;2022-11-15T17:11:30;4.97;;;4.10;;
48789;SDS011;41718;51.980;5.734;2022-11-15T17:16:32;3.35;;;2.20;;
48789;SDS011;41718;51.980;5.734;2022-11-15T17:21:34;8.07;;;6.10;;
48789;SDS011;41718;51.980;5.734;2022-11-15T17:26:35;4.10;;;3.55;;
48789;SDS011;41718;51.980;5.734;2022-11-15T17:31:41;6.50;;;4.07;;
48789;SDS011;41718;51.980;5.734;2022-11-15T17:36:42;7.40;;;4.63;;
48789;SDS011;41718;51.980;5.734;2022-11-15T17:41:44;3.78;;;2.80;;
48789;SDS011;41718;51.980;5.734;2022-11-15T17:46:45;6.03;;;4.18;;
48789;SDS011;41718;51.980;5.734;2022-11-15T17:51:46;6.45;;;5.10;;
48789;SDS011;41718;51.980;5.734;2022-11-15T17:56:50;7.55;;;4.57;;
48789;SDS011;41718;51.980;5.734;2022-11-15T18:01:51;5.38;;;4.38;;
48789;SDS011;41718;51.980;5.734;2022-11-15T18:06:54;7.10;;;3.42;;
48789;SDS011;41718;51.980;5.734;2022-11-15T18:11:56;5.22;;;4.00;;
48789;SDS011;41718;51.980;5.734;2022-11-15T18:16:58;7.38;;;4.28;;
48789;SDS011;41718;51.980;5.734;2022-11-15T18:22:00;6.93;;;4.63;;
48789;SDS011;41718;51.980;5.734;2022-11-15T18:27:02;6.45;;;4.65;;
48789;SDS011;41718;51.980;5.734;2022-11-15T18:32:06;6.95;;;4.55;;
48789;SDS011;41718;51.980;5.734;2022-11-15T18:37:12;8.00;;;5.37;;
48789;SDS011;41718;51.980;5.734;2022-11-15T18:42:14;7.57;;;4.53;;
48789;SDS011;41718;51.980;5.734;2022-11-15T18:47:15;6.53;;;4.70;;
48789;SDS011;41718;51.980;5.734;2022-11-15T18:52:17;8.77;;;5.85;;
48789;SDS011;41718;51.980;5.734;2022-11-15T18:57:18;7.28;;;5.88;;
48789;SDS011;41718;51.980;5.734;2022-11-15T19:02:19;9.43;;;7.07;;
48789;SDS011;41718;51.980;5.734;2022-11-15T19:07:21;8.70;;;6.72;;
48789;SDS011;41718;51.980;5.734;2022-11-15T19:12:22;43.00;;;23.63;;
48789;SDS011;41718;51.980;5.734;2022-11-15T19:17:25;10.57;;;8.90;;
48789;SDS011;41718;51.980;5.734;2022-11-15T19:22:28;7.72;;;5.40;;
48789;SDS011;41718;51.980;5.734;2022-11-15T19:27:30;8.07;;;5.68;;
48789;SDS011;41718;51.980;5.734;2022-11-15T19:32:38;8.48;;;5.68;;
48789;SDS011;41718;51.980;5.734;2022-11-15T19:37:40;10.85;;;8.20;;
48789;SDS011;41718;51.980;5.734;2022-11-15T19:42:41;7.65;;;5.20;;
48789;SDS011;41718;51.980;5.734;2022-11-15T19:47:43;9.57;;;5.45;;
48789;SDS011;41718;51.980;5.734;2022-11-15T19:52:45;9.30;;;6.82;;
48789;SDS011;41718;51.980;5.734;2022-11-15T19:57:50;8.85;;;6.50;;
48789;SDS011;41718;51.980;5.734;2022-11-15T20:02:52;8.18;;;6.28;;
48789;SDS011;41718;51.980;5.734;2022-11-15T20:07:55;10.23;;;6.32;;
48789;SDS011;41718;51.980;5.734;2022-11-15T20:13:00;8.02;;;6.25;;
48789;SDS011;41718;51.980;5.734;2022-11-15T20:18:04;14.52;;;8.15;;
48789;SDS011;41718;51.980;5.734;2022-11-15T20:23:08;9.20;;;7.53;;
48789;SDS011;41718;51.980;5.734;2022-11-15T20:28:09;16.70;;;11.10;;
48789;SDS011;41718;51.980;5.734;2022-11-15T20:33:16;10.90;;;6.57;;
48789;SDS011;41718;51.980;5.734;2022-11-15T20:38:19;9.15;;;6.65;;
48789;SDS011;41718;51.980;5.734;2022-11-15T20:43:21;10.38;;;7.53;;
48789;SDS011;41718;51.980;5.734;2022-11-15T20:48:23;13.38;;;9.27;;
48789;SDS011;41718;51.980;5.734;2022-11-15T20:53:25;10.43;;;8.10;;
48789;SDS011;41718;51.980;5.734;2022-11-15T20:58:31;9.02;;;8.07;;
48789;SDS011;41718;51.980;5.734;2022-11-15T21:03:34;15.90;;;9.40;;
48789;SDS011;41718;51.980;5.734;2022-11-15T21:08:36;13.90;;;10.27;;
48789;SDS011;41718;51.980;5.734;2022-11-15T21:13:57;12.15;;;9.18;;
48789;SDS011;41718;51.980;5.734;2022-11-15T21:19:05;11.60;;;8.43;;
48789;SDS011;41718;51.980;5.734;2022-11-15T21:24:09;42.00;;;25.52;;
48789;SDS011;41718;51.980;5.734;2022-11-15T21:29:10;12.70;;;9.02;;
48789;SDS011;41718;51.980;5.734;2022-11-15T21:34:17;15.85;;;10.23;;
48789;SDS011;41718;51.980;5.734;2022-11-15T21:39:19;13.38;;;9.50;;
48789;SDS011;41718;51.980;5.734;2022-11-15T21:44:20;15.43;;;10.40;;
48789;SDS011;41718;51.980;5.734;2022-11-15T21:49:25;14.40;;;9.55;;
48789;SDS011;41718;51.980;5.734;2022-11-15T21:54:27;14.43;;;10.02;;
48789;SDS011;41718;51.980;5.734;2022-11-15T21:59:29;12.82;;;10.30;;
48789;SDS011;41718;51.980;5.734;2022-11-15T22:04:32;16.85;;;11.52;;
48789;SDS011;41718;51.980;5.734;2022-11-15T22:09:33;15.23;;;9.82;;
48789;SDS011;41718;51.980;5.734;2022-11-15T22:14:37;15.05;;;10.48;;
48789;SDS011;41718;51.980;5.734;2022-11-15T22:19:38;15.75;;;10.45;;
48789;SDS011;41718;51.980;5.734;2022-11-15T22:24:52;15.20;;;12.57;;
48789;SDS011;41718;51.980;5.734;2022-11-15T22:29:55;15.07;;;12.43;;
48789;SDS011;41718;51.980;5.734;2022-11-15T22:34:56;17.88;;;11.27;;
48789;SDS011;41718;51.980;5.734;2022-11-15T22:39:58;13.98;;;9.68;;
48789;SDS011;41718;51.980;5.734;2022-11-15T22:45:00;18.60;;;12.13;;
48789;SDS011;41718;51.980;5.734;2022-11-15T22:50:03;14.98;;;10.60;;
48789;SDS011;41718;51.980;5.734;2022-11-15T22:55:06;14.05;;;10.75;;
48789;SDS011;41718;51.980;5.734;2022-11-15T23:00:12;14.88;;;11.63;;
48789;SDS011;41718;51.980;5.734;2022-11-15T23:05:15;16.13;;;12.15;;
48789;SDS011;41718;51.980;5.734;2022-11-15T23:10:17;17.02;;;12.63;;
48789;SDS011;41718;51.980;5.734;2022-11-15T23:15:37;16.95;;;12.80;;
48789;SDS011;41718;51.980;5.734;2022-11-15T23:20:57;22.23;;;15.35;;
48789;SDS011;41718;51.980;5.734;2022-11-15T23:25:59;17.75;;;14.07;;
48789;SDS011;41718;51.980;5.734;2022-11-15T23:31:02;18.58;;;12.52;;
48789;SDS011;41718;51.980;5.734;2022-11-15T23:36:24;20.95;;;13.82;;
48789;SDS011;41718;51.980;5.734;2022-11-15T23:41:26;19.23;;;13.73;;
48789;SDS011;41718;51.980;5.734;2022-11-15T23:46:28;19.17;;;13.80;;
48789;SDS011;41718;51.980;5.734;2022-11-15T23:51:29;24.58;;;14.68;;
48789;SDS011;41718;51.980;5.734;2022-11-15T23:56:31;20.80;;;12.93;;
